Thunder radar more information blitzortung!


avis per Pluja more information rain snow radar


Visita la nostra xarxa de llocs de meteo:

Template documentation
and downloads

And another site



Rain From: 18-10-2018 10:00 Until: 16:59 warning for: Rain Level: Yellow info button

Pagina Historial Weather Underground text

Diari Resum February 18, 2016 Unitats:  Mètric    Imperial   Tant
« Previous Dia
SegĂźent Dia »
Diari Setmana Mensual Anual Personalitzada
  Maxima: Minima: Media:
Temperatura: -17.8 °C -16.4 °C -13.3 °C
Punt de rosada: -17.8 °C -24.6 °C -19.9 °C
Humitat: Humidity % 33 % 43 %
Wind Speed: 0 km/h 0 km/h 5.5 km/h
RĂ fegues de vent: 0 km/h - -
Vent:- - SE
Pression baro: 0 hPa 33751.6 hPa -
Precipitacions: 0 mm    
Historical Graphs
 
 
Dades de taula per February 18, 2016
Temps Temperatura Punt de rosada Pression baro Vent Wind Speed RĂ fegues de vent Humitat Rainfall Rate (Hourly)
-17.8 °C -17.8 °C 0 hPa Calm     Humidity % 0 mm
10:56 -16.4 °C -24.6 °C 33751.6 hPa NNE 16.1 km/h 16.1 km/h 33 % 0 mm
11:01 -14.1 °C -20.4 °C 34462.7 hPa NNE 9 km/h 9 km/h 44 % 0 mm
11:11 -14.1 °C -20.4 °C 34496.6 hPa NNE 11.9 km/h 11.9 km/h 44 % 0 mm
11:16 -14.1 °C -20.4 °C 34496.6 hPa North 11.9 km/h 11.9 km/h 44 % 0 mm
11:21 -14.1 °C -20.6 °C 34462.7 hPa NE 12.2 km/h 12.2 km/h 43 % 0 mm
11:26 -14.2 °C -20.7 °C 34462.7 hPa NNE 11.9 km/h 11.9 km/h 43 % 0 mm
11:31 -14.1 °C -20.6 °C 34462.7 hPa NNE 15.3 km/h 15.3 km/h 43 % 0 mm
11:36 -14.1 °C -20.6 °C 34462.7 hPa East 16.6 km/h 16.6 km/h 43 % 0 mm
11:41 -14.1 °C -20.6 °C 34462.7 hPa ENE 11.1 km/h 11.1 km/h 43 % 0 mm
11:46 -14.1 °C -20.6 °C 34462.7 hPa ENE 4.2 km/h 4.2 km/h 43 % 0 mm
11:56 -14.1 °C -20.8 °C 34496.6 hPa NNE 15 km/h 15 km/h 42 % 0 mm
12:01 -14.1 °C -20.7 °C 34496.6 hPa NW 15 km/h 15 km/h 42 % 0 mm
12:06 -14 °C -20.7 °C 34496.6 hPa NE 9 km/h 9 km/h 42 % 0 mm
12:11 -13.9 °C -20.7 °C 34496.6 hPa NNE 9.8 km/h 9.8 km/h 42 % 0 mm
12:16 -13.9 °C -20.7 °C 34496.6 hPa NNE 9 km/h 9 km/h 42 % 0 mm
12:21 -13.9 °C -20.7 °C 34496.6 hPa NNE 9.8 km/h 9.8 km/h 42 % 0 mm
12:26 -13.9 °C -20.7 °C 34496.6 hPa ENE 11.9 km/h 11.9 km/h 42 % 0 mm
12:31 -13.9 °C -20.7 °C 34496.6 hPa NNE 15 km/h 15 km/h 42 % 0 mm
12:36 -13.9 °C -20.7 °C 34533.8 hPa WNW 11.9 km/h 11.9 km/h 42 % 0 mm
12:41 -13.9 °C -20.6 °C 34533.8 hPa NNE 15 km/h 15 km/h 42 % 0 mm
12:46 -13.9 °C -20.6 °C 34533.8 hPa WNW 6 km/h 6 km/h 42 % 0 mm
12:51 -13.8 °C -20.5 °C 34496.6 hPa NNE 6 km/h 6 km/h 42 % 0 mm
12:56 -13.8 °C -20.5 °C 34496.6 hPa ENE 9 km/h 9 km/h 42 % 0 mm
13:01 -13.8 °C -20.5 °C 34496.6 hPa NE 6 km/h 6 km/h 42 % 0 mm
13:06 -13.7 °C -20.4 °C 34496.6 hPa NNE 6 km/h 6 km/h 42 % 0 mm
13:11 -13.7 °C -20.4 °C 34496.6 hPa NNE 6.8 km/h 6.8 km/h 42 % 0 mm
13:21 -13.6 °C -20.3 °C 34496.6 hPa ENE 6 km/h 6 km/h 42 % 0 mm
13:26 -13.6 °C -20.3 °C 34496.6 hPa ENE 8 km/h 8 km/h 42 % 0 mm
13:36 -13.5 °C -20.2 °C 34496.6 hPa NE 11.9 km/h 11.9 km/h 42 % 0 mm
13:41 -13.4 °C -20.3 °C 34496.6 hPa NNE 9 km/h 9 km/h 41 % 0 mm
13:46 -13.3 °C -20.1 °C 34496.6 hPa ENE 9 km/h 9 km/h 42 % 0 mm
13:51 -13.2 °C -19.9 °C 34496.6 hPa NNE 9 km/h 9 km/h 42 % 0 mm
13:56 -13.1 °C -19.8 °C 34496.6 hPa NNE 6.8 km/h 6.8 km/h 42 % 0 mm
14:01 -12.9 °C -19.7 °C 34496.6 hPa NNE 8 km/h 8 km/h 42 % 0 mm
14:06 -12.9 °C -19.7 °C 34462.7 hPa NE 9 km/h 9 km/h 42 % 0 mm
14:11 -12.8 °C -19.6 °C 34462.7 hPa WNW 6 km/h 6 km/h 42 % 0 mm
14:16 -12.7 °C -19.6 °C 34462.7 hPa NNE 15 km/h 15 km/h 42 % 0 mm
14:21 -12.7 °C -19.5 °C 34428.8 hPa ENE 15 km/h 15 km/h 42 % 0 mm
14:26 -12.8 °C -19.8 °C 34428.8 hPa East 9 km/h 9 km/h 41 % 0 mm
14:31 -12.8 °C -19.8 °C 34428.8 hPa ENE 9 km/h 9 km/h 41 % 0 mm
14:36 -12.7 °C -19.7 °C 34462.7 hPa ENE 15 km/h 15 km/h 41 % 0 mm
14:41 -12.7 °C -19.5 °C 34462.7 hPa NNE 9 km/h 9 km/h 42 % 0 mm
14:46 -12.7 °C -19.7 °C 34462.7 hPa ENE 11.9 km/h 11.9 km/h 41 % 0 mm
14:51 -12.6 °C -19.6 °C 34462.7 hPa NNE 9 km/h 9 km/h 41 % 0 mm
14:56 -12.6 °C -19.6 °C 34462.7 hPa ENE 9 km/h 9 km/h 41 % 0 mm
15:01 -12.4 °C -19.5 °C 34462.7 hPa NNE 9 km/h 9 km/h 41 % 0 mm
15:06 -12.6 °C -19.6 °C 34462.7 hPa NNE 15 km/h 15 km/h 41 % 0 mm
15:11 -12.6 °C -19.6 °C 34462.7 hPa North 11.9 km/h 11.9 km/h 41 % 0 mm
15:16 -12.4 °C -19.5 °C 34462.7 hPa East 9 km/h 9 km/h 41 % 0 mm
15:21 -12.4 °C -19.5 °C 34462.7 hPa NE 12.2 km/h 12.2 km/h 41 % 0 mm
15:26 -12.5 °C -19.5 °C 34462.7 hPa ENE 9 km/h 9 km/h 41 % 0 mm
15:31 -12.4 °C -19.5 °C 34462.7 hPa NNE 6.8 km/h 6.8 km/h 41 % 0 mm
15:36 -12.5 °C -19.5 °C 34462.7 hPa SSW 5.1 km/h 5.1 km/h 41 % 0 mm
15:41 -12.4 °C -19.4 °C 34462.7 hPa ESE 4.2 km/h   41 % 0 mm
15:46 -12.3 °C -19.3 °C 34462.7 hPa ENE 9 km/h 9 km/h 41 % 0 mm
15:51 -12.3 °C -19.3 °C 34462.7 hPa SSW 9 km/h 9 km/h 41 % 0 mm
15:56 -12.3 °C -19.6 °C 34462.7 hPa South 6 km/h 6 km/h 40 % 0 mm
16:01 -12.2 °C -19.3 °C 34462.7 hPa SW 6 km/h 6 km/h 41 % 0 mm
16:06 -12.1 °C -19.1 °C 34462.7 hPa South 3.1 km/h 3.1 km/h 41 % 0 mm
16:11 -12 °C -19.1 °C 34462.7 hPa WSW 9 km/h 9 km/h 41 % 0 mm
16:21 -12.1 °C -19.3 °C 34462.7 hPa SW 9 km/h 9 km/h 40 % 0 mm
16:31 -12.2 °C -19.4 °C 34462.7 hPa SSE 3.1 km/h   40 % 0 mm
16:36 -12.1 °C -19.3 °C 34496.6 hPa SW 3.1 km/h 3.1 km/h 40 % 0 mm
16:41 -12 °C -19.3 °C 34496.6 hPa WSW 6 km/h 6 km/h 40 % 0 mm
16:46 -12 °C -19.3 °C 34496.6 hPa Calm     40 % 0 mm
16:51 -12 °C -19.3 °C 34496.6 hPa SW 3.1 km/h   40 % 0 mm
16:56 -12 °C -19.3 °C 34496.6 hPa South 3.7 km/h 3.7 km/h 40 % 0 mm
17:01 -12.1 °C -19.3 °C 34496.6 hPa WSW 7.6 km/h 7.6 km/h 40 % 0 mm
17:06 -12.2 °C -19.4 °C 34496.6 hPa WSW 6.8 km/h 6.8 km/h 40 % 0 mm
17:11 -12.2 °C -19.4 °C 34496.6 hPa WSW 6 km/h 6 km/h 40 % 0 mm
17:16 -12.2 °C -19.4 °C 34496.6 hPa WSW 6 km/h 6 km/h 40 % 0 mm
17:21 -12.2 °C -19.4 °C 34496.6 hPa WSW 6 km/h 6 km/h 40 % 0 mm
17:26 -12.3 °C -19.5 °C 34496.6 hPa SW 3.1 km/h   40 % 0 mm
17:31 -12.2 °C -19.4 °C 34496.6 hPa Calm     40 % 0 mm
17:36 -12.2 °C -19.4 °C 34533.8 hPa Calm     40 % 0 mm
17:41 -12.2 °C -19.4 °C 34533.8 hPa WSW 3.1 km/h   40 % 0 mm
17:46 -12.2 °C -19.4 °C 34533.8 hPa Calm     40 % 0 mm
17:51 -12.2 °C -19.4 °C 34533.8 hPa Calm     40 % 0 mm
17:56 -12.3 °C -19.5 °C 34533.8 hPa Calm     40 % 0 mm
18:01 -12.3 °C -19.6 °C 34533.8 hPa Calm     40 % 0 mm
18:06 -12.4 °C -19.6 °C 34533.8 hPa Calm     40 % 0 mm
18:11 -12.4 °C -19.6 °C 34533.8 hPa Calm     40 % 0 mm
18:16 -12.4 °C -19.6 °C 34533.8 hPa Calm     40 % 0 mm
18:21 -12.5 °C -19.7 °C 34533.8 hPa Calm     40 % 0 mm
18:26 -12.5 °C -19.7 °C 34533.8 hPa Calm     40 % 0 mm
18:31 -12.6 °C -19.8 °C 34533.8 hPa Calm     40 % 0 mm
18:36 -12.6 °C -19.8 °C 34533.8 hPa Calm     40 % 0 mm
18:46 -12.7 °C -19.7 °C 34533.8 hPa WSW 3.7 km/h 3.7 km/h 41 % 0 mm
18:56 -12.7 °C -19.7 °C 34533.8 hPa Calm     41 % 0 mm
19:01 -12.7 °C -19.7 °C 34533.8 hPa Calm     41 % 0 mm
19:06 -12.8 °C -19.8 °C 34533.8 hPa Calm     41 % 0 mm
19:11 -12.7 °C -19.7 °C 34533.8 hPa Calm     41 % 0 mm
19:16 -12.8 °C -19.8 °C 34533.8 hPa SW 6 km/h 6 km/h 41 % 0 mm
19:21 -12.9 °C -19.9 °C 34567.7 hPa WSW 5.1 km/h 5.1 km/h 41 % 0 mm
19:31 -12.9 °C -19.9 °C 34567.7 hPa SW 6 km/h 6 km/h 41 % 0 mm
19:36 -12.9 °C -19.7 °C 34533.8 hPa WSW 6.3 km/h 6.3 km/h 42 % 0 mm
19:41 -12.9 °C -19.7 °C 34533.8 hPa WSW 3.1 km/h   42 % 0 mm
19:46 -12.9 °C -19.7 °C 34533.8 hPa Calm     42 % 0 mm
19:51 -13 °C -19.8 °C 34567.7 hPa East 5.1 km/h 5.1 km/h 42 % 0 mm
19:56 -13 °C -19.8 °C 34567.7 hPa Calm     42 % 0 mm
20:06 -13.1 °C -19.7 °C 34601.5 hPa SSE 8 km/h   43 % 0 mm
20:11 -13.1 °C -19.7 °C 34601.5 hPa SW 3.1 km/h   43 % 0 mm
20:16 -13.1 °C -19.7 °C 34601.5 hPa WSW 6 km/h   43 % 0 mm
20:21 -13.1 °C -19.7 °C 34601.5 hPa SW 6 km/h 6 km/h 43 % 0 mm
20:26 -13.1 °C -19.7 °C 34601.5 hPa WSW 3.1 km/h   43 % 0 mm
20:36 -13.1 °C -19.7 °C 34567.7 hPa WSW 3.1 km/h   43 % 0 mm
20:41 -13.2 °C -19.8 °C 34567.7 hPa WSW 3.1 km/h   43 % 0 mm
20:46 -13.3 °C -19.8 °C 34567.7 hPa Calm     43 % 0 mm
20:56 -13.4 °C -19.8 °C 34601.5 hPa Calm     44 % 0 mm
21:01 -13.5 °C -19.9 °C 34601.5 hPa Calm     44 % 0 mm
21:06 -13.6 °C -19.9 °C 34601.5 hPa WSW 2.3 km/h   44 % 0 mm
21:11 -13.6 °C -19.8 °C 34601.5 hPa West 3.1 km/h   45 % 0 mm
21:16 -13.7 °C -19.9 °C 34601.5 hPa Calm     45 % 0 mm
21:21 -13.7 °C -19.8 °C 34601.5 hPa Calm     46 % 0 mm
21:26 -13.8 °C -19.8 °C 34601.5 hPa NE 2.3 km/h   46 % 0 mm
21:31 -13.8 °C -19.9 °C 34601.5 hPa NE 3.1 km/h 3.1 km/h 46 % 0 mm
21:36 -13.9 °C -19.9 °C 34567.7 hPa ENE 6 km/h 6 km/h 46 % 0 mm
21:46 -14 °C -20.1 °C 34567.7 hPa Calm     46 % 0 mm
21:56 -14.1 °C -19.9 °C 34601.5 hPa Calm     47 % 0 mm
22:01 -14.1 °C -19.9 °C 34601.5 hPa Calm     47 % 0 mm
22:06 -14.2 °C -20 °C 34635.4 hPa Calm     47 % 0 mm
22:11 -14.2 °C -20 °C 34635.4 hPa WSW 6 km/h 6 km/h 47 % 0 mm
22:16 -14.2 °C -20.1 °C 34601.5 hPa WSW 3.1 km/h 3.1 km/h 47 % 0 mm
22:21 -14.2 °C -20.1 °C 34601.5 hPa WSW 3.1 km/h   47 % 0 mm
22:26 -14.3 °C -20.1 °C 34601.5 hPa Calm     47 % 0 mm
22:31 -14.3 °C -20 °C 34601.5 hPa Calm     48 % 0 mm
22:36 -14.4 °C -20.1 °C 34635.4 hPa Calm     48 % 0 mm
22:41 -14.4 °C -20.1 °C 34635.4 hPa WSW 5.1 km/h 5.1 km/h 48 % 0 mm
22:46 -14.5 °C -20.2 °C 34635.4 hPa WSW 3.7 km/h 3.7 km/h 48 % 0 mm
22:51 -14.5 °C -20.2 °C 34601.5 hPa WSW 3.1 km/h 3.1 km/h 48 % 0 mm
22:56 -14.6 °C -20.1 °C 34601.5 hPa Calm     49 % 0 mm
23:01 -14.6 °C -20.1 °C 34601.5 hPa Calm     49 % 0 mm
23:06 -14.7 °C -20.2 °C 34601.5 hPa Calm     49 % 0 mm
23:11 -14.7 °C -20.2 °C 34601.5 hPa Calm     49 % 0 mm
23:16 -14.7 °C -20.2 °C 34601.5 hPa Calm     49 % 0 mm
23:21 -14.7 °C -20.2 °C 34635.4 hPa Calm     49 % 0 mm
23:26 -14.7 °C -20.2 °C 34635.4 hPa West 6 km/h 6 km/h 49 % 0 mm
23:31 -14.7 °C -20 °C 34635.4 hPa WNW 3.1 km/h   50 % 0 mm
23:36 -14.7 °C -20 °C 34635.4 hPa NE 3.1 km/h   50 % 0 mm
23:41 -14.7 °C -20.1 °C 34635.4 hPa Calm     50 % 0 mm
23:46 -14.8 °C -20.1 °C 34635.4 hPa Calm     50 % 0 mm
23:51 -14.8 °C -20.1 °C 34635.4 hPa Calm     50 % 0 mm
23:56 -14.8 °C -20.2 °C 34635.4 hPa NE 3.1 km/h 3.1 km/h 50 % 0 mm
Meteo Sesrovires
Elogis d' Weather Underground - 1.25 mb

Guio original per  Jim McMurry - jmcmurry@mwt.net Adaptat per a la plantilla per  Wim van der Kuil - Leuven-Template.eu

Trobareu la nostra informacio del temps tambe a:

Weather Underground

AWEKAS